KHKS/HKS METAR and TAF weather

Enter ICAO airport designator
Station Type Date Time Source
KHKS METAR 2019/07/20 04:53 UTC NOAA

KHKS 200453Z AUTO 17008KT 10SM SCT065 27/25 A3003 RMK AO2 SLP159 T02720250


Station Type Date Time Source
KHKS Decoded METAR 2019/07/20 04:53 UTC NOAA

HAWKINS FIELD, MS, United States (KHKS) 32-20N 090-13W 108M
Jul 20, 2019 - 12:53 AM EDT / 2019.07.20 0453 UTC
Wind: from the S (170 degrees) at 9 MPH (8 KT):0
Visibility: 10 mile(s):0
Sky conditions: partly cloudy
Temperature: 81.0 F (27.2 C)
Dew Point: 77.0 F (25.0 C)
Relative Humidity: 87%
Pressure (altimeter): 30.03 in. Hg (1016 hPa)
ob: KHKS 200453Z AUTO 17008KT 10SM SCT065 27/25 A3003 RMK AO2 SLP159 T02720250
cycle: 5

Station Type Date Time Source
KHKS TAF 2019/07/19 18:28 UTC NOAA

TAF KHKS 191726Z 1918/2018 25005KT P6SM VCSH BKN050
FM200000 17004KT P6SM SCT250

Example: see airport list